Time;durP1;ratioP1;P1;durP2;ratioP2;P2;SDS_P1;SDS_P2;PMS_P1;PMS_P2;Temp;Humidity;BMP_temperature;BMP_pressure;BME280_temperature;BME280_humidity;BME280_pressure;Samples;Min_cycle;Max_cycle;Signal;HPM_P1;HPM_P2
2023/01/26 00:01:28;;;;;;;155.70;42.50;;;;;;;8.82;96.46;102355.81;5060072;28;20053;-51
2023/01/26 00:03:55;;;;;;;140.35;40.08;;;;;;;8.56;97.14;102345.78;5059785;28;20025;-52
2023/01/26 00:06:21;;;;;;;;;;;;;;;7.96;100.00;102344.19;5062224;28;20090;-54
2023/01/26 00:08:48;;;;;;;155.27;41.23;;;;;;;8.66;97.82;102351.09;5057168;28;19980;-48
2023/01/26 00:11:23;;;;;;;157.57;41.33;;;;;;;8.09;100.00;102353.72;5058091;28;20096;-51
2023/01/26 00:13:49;;;;;;;138.18;39.20;;;;;;;8.37;100.00;102346.66;5056539;28;20060;-50
2023/01/26 00:16:15;;;;;;;154.80;38.57;;;;;;;8.38;98.92;102343.00;5060868;28;20028;-53
2023/01/26 00:18:41;;;;;;;141.93;37.37;;;;;;;8.33;100.00;102339.94;5058738;28;20281;-53
2023/01/26 00:21:10;;;;;;;130.63;36.47;;;;;;;8.35;97.77;102340.63;5057311;28;20036;-48
2023/01/26 00:23:36;;;;;;;138.13;37.30;;;;;;;8.35;99.34;102337.13;5056103;28;20097;-49
2023/01/26 00:26:04;;;;;;;145.47;39.43;;;;;;;8.38;98.91;102329.69;5061944;28;20033;-49
2023/01/26 00:28:29;;;;;;;139.80;39.17;;;;;;;7.95;100.00;102318.50;5059530;28;20037;-51
2023/01/26 00:31:03;;;;;;;112.83;31.73;;;;;;;7.82;100.00;102320.63;5063318;28;20044;-49
2023/01/26 00:33:29;;;;;;;131.68;32.97;;;;;;;7.74;100.00;102324.00;5061100;28;20049;-49
2023/01/26 00:35:55;;;;;;;135.02;36.63;;;;;;;7.73;100.00;102320.50;5063730;28;20055;-51
2023/01/26 00:38:20;;;;;;;145.97;36.57;;;;;;;7.63;100.00;102316.16;5057586;28;20033;-51
2023/01/26 00:40:46;;;;;;;133.70;33.40;;;;;;;8.04;100.00;102327.47;5062621;28;20290;-52
2023/01/26 00:43:12;;;;;;;138.53;36.57;;;;;;;7.44;100.00;102313.31;5061260;28;20040;-51
2023/01/26 00:45:37;;;;;;;137.17;35.77;;;;;;;7.57;100.00;102312.22;5063114;28;20266;-53
2023/01/26 00:48:04;;;;;;;141.23;37.88;;;;;;;7.39;100.00;102312.91;5059327;28;20071;-52
2023/01/26 00:50:30;;;;;;;142.25;34.40;;;;;;;7.52;100.00;102315.28;5059835;28;20072;-50
2023/01/26 00:52:55;;;;;;;160.73;39.97;;;;;;;7.53;100.00;102318.81;5058074;28;20029;-51
2023/01/26 00:55:23;;;;;;;139.02;34.88;;;;;;;8.06;100.00;102316.69;5062836;28;20036;-51
2023/01/26 00:57:49;;;;;;;140.65;33.95;;;;;;;8.39;98.66;102312.69;5060138;28;20049;-52
2023/01/26 01:00:16;;;;;;;156.48;40.33;;;;;;;7.99;99.82;102321.75;5059654;28;20115;-52
2023/01/26 01:02:42;;;;;;;144.23;37.38;;;;;;;7.38;100.00;102318.34;5058481;28;20039;-49
2023/01/26 01:05:10;;;;;;;134.07;37.83;;;;;;;7.37;100.00;102314.00;5060314;28;20030;-53
2023/01/26 01:07:36;;;;;;;144.27;37.78;;;;;;;8.00;100.00;102310.09;5056466;28;20028;-50
2023/01/26 01:10:01;;;;;;;158.70;35.40;;;;;;;8.29;100.00;102307.38;5060329;28;20040;-51
2023/01/26 01:12:28;;;;;;;138.30;35.75;;;;;;;8.61;99.07;102308.84;5059035;28;20037;-51
2023/01/26 01:14:53;;;;;;;127.30;32.58;;;;;;;7.83;100.00;102307.16;5054614;28;20056;-49
2023/01/26 01:17:19;;;;;;;122.13;30.27;;;;;;;8.24;100.00;102304.31;5057414;28;20037;-53
2023/01/26 01:19:44;;;;;;;149.75;35.88;;;;;;;8.09;100.00;102311.06;5056559;28;20037;-51
2023/01/26 01:22:11;;;;;;;141.43;37.08;;;;;;;8.59;99.62;102313.50;5056116;28;20036;-49
2023/01/26 01:24:36;;;;;;;141.27;35.57;;;;;;;8.09;100.00;102311.94;5059883;28;20041;-53
2023/01/26 01:27:03;;;;;;;143.93;38.70;;;;;;;8.46;100.00;102305.78;5060679;28;20053;-53
2023/01/26 01:29:28;;;;;;;145.53;37.47;;;;;;;8.24;100.00;102304.31;5059670;28;20041;-50
2023/01/26 01:31:53;;;;;;;143.27;35.10;;;;;;;8.89;97.44;102302.72;5061142;28;20033;-50
2023/01/26 01:34:19;;;;;;;137.13;37.60;;;;;;;8.80;96.12;102307.09;5063517;28;20045;-49
2023/01/26 01:36:45;;;;;;;145.23;39.17;;;;;;;8.32;98.70;102314.28;5060198;28;20061;-53
2023/01/26 01:39:10;;;;;;;105.67;30.97;;;;;;;8.22;100.00;102303.63;5067269;28;20281;-50
2023/01/26 01:41:36;;;;;;;137.40;36.28;;;;;;;8.88;96.63;102303.69;5066766;28;20032;-49
2023/01/26 01:44:13;;;;;;;156.93;40.17;;;;;;;8.84;95.87;102299.66;5063586;28;20060;-52
2023/01/26 01:46:44;;;;;;;125.43;33.67;;;;;;;8.86;96.40;102303.00;5061363;28;20064;-49
2023/01/26 01:49:22;;;;;;;146.07;37.13;;;;;;;8.74;97.23;102297.84;5064489;28;20079;-50
2023/01/26 01:51:55;;;;;;;132.57;37.47;;;;;;;8.72;97.38;102293.66;5057827;28;20475;-49
2023/01/26 01:54:29;;;;;;;133.55;37.25;;;;;;;8.48;97.53;102292.34;5065910;28;20040;-53
2023/01/26 01:56:59;;;;;;;139.43;37.15;;;;;;;8.67;98.65;102285.28;5076865;28;20044;-47
2023/01/26 01:59:25;;;;;;;135.85;36.03;;;;;;;8.31;98.45;102289.44;5062082;28;20047;-49
2023/01/26 02:01:52;;;;;;;142.52;37.08;;;;;;;8.61;99.59;102284.03;5063734;28;20094;-50
2023/01/26 02:04:20;;;;;;;133.18;34.05;;;;;;;8.31;100.00;102277.94;5061619;28;20030;-49
2023/01/26 02:06:48;;;;;;;148.60;38.53;;;;;;;8.77;97.66;102274.56;5062889;28;20052;-53
2023/01/26 02:12:03;;;;;;;154.57;41.15;;;;;;;9.06;95.17;102274.38;5064003;28;20025;-49
2023/01/26 02:14:31;;;;;;;132.80;35.80;;;;;;;8.68;98.22;102274.44;5061801;28;20029;-50
2023/01/26 02:16:57;;;;;;;135.13;36.53;;;;;;;8.49;99.41;102285.16;5064387;28;20059;-48
2023/01/26 02:19:38;;;;;;;137.73;36.55;;;;;;;8.72;97.63;102262.50;5064716;28;20029;-51
2023/01/26 02:22:11;;;;;;;141.00;37.78;;;;;;;8.64;98.83;102267.72;5061614;28;20045;-51
2023/01/26 02:24:39;;;;;;;137.13;36.25;;;;;;;8.97;97.83;102268.09;5059412;28;20026;-47
2023/01/26 02:27:05;;;;;;;136.35;36.50;;;;;;;8.51;100.00;102272.53;5060289;28;20017;-51
2023/01/26 02:29:32;;;;;;;149.15;36.60;;;;;;;8.53;99.78;102265.22;5061359;28;20026;-47
2023/01/26 02:31:57;;;;;;;141.73;33.13;;;;;;;9.06;97.38;102276.22;5061922;28;20128;-53
2023/01/26 02:34:27;;;;;;;149.67;40.00;;;;;;;9.36;93.91;102260.84;5064000;28;20049;-52
2023/01/26 02:37:00;;;;;;;146.05;37.42;;;;;;;9.31;94.49;102259.47;5058823;28;20270;-52
2023/01/26 02:39:51;;;;;;;137.32;35.30;;;;;;;9.78;92.65;102267.38;5063816;28;20025;-49
2023/01/26 02:45:01;;;;;;;132.18;32.92;;;;;;;9.50;94.19;102271.00;5061430;28;20025;-54
2023/01/26 02:47:28;;;;;;;133.52;35.92;;;;;;;9.20;95.35;102261.53;5066926;28;20021;-49
2023/01/26 02:49:54;;;;;;;140.43;36.85;;;;;;;8.99;96.88;102263.47;5059796;28;20028;-52
2023/01/26 02:52:24;;;;;;;128.70;35.78;;;;;;;9.70;92.72;102263.66;5060554;28;20029;-51
2023/01/26 02:55:27;;;;;;;135.75;35.22;;;;;;;9.12;96.21;102257.78;5060892;28;20040;-52
2023/01/26 02:57:56;;;;;;;135.30;33.17;;;;;;;9.31;94.23;102263.97;5055269;28;20067;-51
2023/01/26 03:00:25;;;;;;;139.82;34.60;;;;;;;8.73;99.23;102266.84;5055509;28;20029;-53
2023/01/26 03:02:55;;;;;;;144.90;39.63;;;;;;;9.24;95.55;102269.09;5059178;28;20033;-55
2023/01/26 03:05:22;;;;;;;134.55;34.80;;;;;;;8.90;95.80;102275.03;5061260;28;20026;-52
2023/01/26 03:07:49;;;;;;;144.07;38.03;;;;;;;9.28;95.38;102270.47;5058626;28;20029;-52
2023/01/26 03:10:17;;;;;;;152.25;39.95;;;;;;;9.68;92.06;102273.66;5064213;28;20117;-55
2023/01/26 03:12:44;;;;;;;163.18;38.45;;;;;;;9.36;92.95;102267.03;5060615;28;20056;-53
2023/01/26 03:29:06;;;;;;;118.45;30.65;;;;;;;9.92;88.35;102269.50;5059640;28;20083;-51
2023/01/26 03:31:32;;;;;;;136.45;34.45;;;;;;;9.86;88.91;102270.13;5066803;28;20028;-54
2023/01/26 03:33:58;;;;;;;107.43;27.50;;;;;;;10.07;89.07;102277.78;5057819;28;20433;-53
2023/01/26 03:36:23;;;;;;;108.70;29.93;;;;;;;10.13;88.71;102282.50;5058416;28;20041;-49
2023/01/26 03:38:50;;;;;;;125.43;32.33;;;;;;;9.11;92.99;102273.94;5062818;28;20092;-49
2023/01/26 03:57:52;;;;;;;121.65;31.60;;;;;;;10.14;88.41;102264.63;5060732;28;20044;-50
2023/01/26 04:00:18;;;;;;;112.55;29.35;;;;;;;9.99;87.90;102265.19;5063032;28;20033;-53
2023/01/26 04:08:22;;;;;;;110.65;29.20;;;;;;;9.88;88.31;102268.13;5052495;28;20053;-55
2023/01/26 04:10:54;;;;;;;96.45;26.73;;;;;;;10.00;87.61;102266.03;5059416;28;20025;-52
2023/01/26 04:21:39;;;;;;;108.72;29.35;;;;;;;10.16;88.55;102267.97;5056078;28;20109;-54
2023/01/26 04:24:14;;;;;;;105.63;27.73;;;;;;;10.24;86.76;102267.19;5059243;28;20048;-51
2023/01/26 04:26:41;;;;;;;103.68;28.02;;;;;;;10.40;86.25;102259.31;5055342;28;20033;-50
2023/01/26 04:29:12;;;;;;;107.18;28.23;;;;;;;10.23;85.51;102260.19;5060321;28;20036;-52
2023/01/26 04:31:41;;;;;;;110.30;29.35;;;;;;;10.40;86.05;102261.97;5055554;28;20033;-51
2023/01/26 04:34:13;;;;;;;101.90;27.48;;;;;;;10.07;87.11;102261.75;5056159;28;20037;-51
2023/01/26 04:36:40;;;;;;;102.05;28.63;;;;;;;10.10;87.96;102272.13;5057728;28;20021;-55
2023/01/26 04:39:06;;;;;;;98.93;27.15;;;;;;;10.51;85.24;102260.00;5062071;28;20036;-55
2023/01/26 04:41:33;;;;;;;104.63;27.15;;;;;;;10.41;86.21;102260.97;5052770;28;20029;-57
2023/01/26 04:44:03;;;;;;;95.28;24.85;;;;;;;10.26;86.57;102262.53;5053479;28;20025;-50
2023/01/26 04:46:31;;;;;;;98.82;27.60;;;;;;;10.35;86.25;102266.09;5056189;28;20033;-49
2023/01/26 04:48:59;;;;;;;86.93;26.15;;;;;;;10.39;86.52;102260.28;5055754;28;20037;-50
2023/01/26 04:51:24;;;;;;;90.13;28.83;;;;;;;10.35;86.98;102264.25;5052161;28;20040;-49
2023/01/26 04:53:50;;;;;;;95.70;26.90;;;;;;;10.04;88.05;102262.06;5057307;28;20040;-49
2023/01/26 04:56:24;;;;;;;88.75;28.77;;;;;;;10.46;86.62;102258.66;5054182;28;20521;-50
2023/01/26 04:58:52;;;;;;;92.75;24.65;;;;;;;10.64;85.46;102264.91;5057799;28;20041;-50
2023/01/26 05:01:19;;;;;;;89.22;24.98;;;;;;;10.39;86.99;102267.44;5057112;28;20033;-49
2023/01/26 05:03:44;;;;;;;;;;;;;;;10.21;87.03;102265.66;5056580;28;20037;-54
2023/01/26 05:06:11;;;;;;;86.83;23.57;;;;;;;10.55;86.20;102258.69;5053974;28;19917;-51
2023/01/26 05:08:37;;;;;;;;;;;;;;;10.54;85.95;102257.00;5054328;28;20308;-51
2023/01/26 05:11:04;;;;;;;77.30;23.07;;;;;;;10.51;85.83;102252.00;5056868;28;20090;-50
2023/01/26 05:13:52;;;;;;;74.68;22.90;;;;;;;10.43;86.43;102256.31;5058670;28;20104;-48
2023/01/26 05:16:45;;;;;;;70.35;21.25;;;;;;;10.61;85.45;102242.03;5061014;28;20067;-55
2023/01/26 05:19:24;;;;;;;77.40;21.73;;;;;;;10.44;85.65;102243.75;5058448;28;20432;-53
2023/01/26 05:21:57;;;;;;;81.47;22.45;;;;;;;10.34;87.22;102246.53;5061394;28;20043;-50
2023/01/26 05:24:23;;;;;;;81.15;24.75;;;;;;;10.66;85.66;102244.19;5061385;28;20093;-51
2023/01/26 05:29:59;;;;;;;74.25;21.48;;;;;;;11.35;82.03;102251.22;5059595;28;20041;-51
2023/01/26 05:32:29;;;;;;;76.30;23.00;;;;;;;10.95;82.78;102245.59;5063013;28;20063;-53
2023/01/26 05:34:56;;;;;;;76.47;22.33;;;;;;;11.12;82.27;102247.34;5061042;28;20050;-52
2023/01/26 05:37:27;;;;;;;70.57;22.00;;;;;;;11.01;82.77;102250.34;5064897;28;20025;-52
2023/01/26 05:39:54;;;;;;;71.63;20.38;;;;;;;11.33;81.36;102254.91;5061922;28;20017;-50
2023/01/26 05:42:20;;;;;;;68.00;21.95;;;;;;;11.06;82.33;102250.69;5064291;28;20029;-53
2023/01/26 05:44:46;;;;;;;69.90;23.10;;;;;;;11.65;80.23;102260.47;5065514;28;20037;-50
2023/01/26 05:47:13;;;;;;;68.55;22.30;;;;;;;11.05;82.27;102251.69;5064166;28;20040;-54
2023/01/26 05:49:41;;;;;;;75.22;22.55;;;;;;;11.16;81.64;102247.84;5064368;28;20051;-53
2023/01/26 05:52:14;;;;;;;62.22;20.38;;;;;;;11.61;80.10;102251.91;5066009;28;20037;-52
2023/01/26 05:54:40;;;;;;;67.32;20.23;;;;;;;11.32;80.46;102255.91;5060380;28;20037;-52
2023/01/26 05:57:07;;;;;;;64.10;20.23;;;;;;;11.62;79.66;102256.25;5064552;28;20053;-51
2023/01/26 05:59:36;;;;;;;70.82;23.33;;;;;;;11.08;80.92;102250.53;5060583;28;20025;-52
2023/01/26 06:02:02;;;;;;;70.30;20.70;;;;;;;11.54;81.10;102250.91;5058508;28;20081;-54
2023/01/26 06:04:28;;;;;;;64.95;21.58;;;;;;;11.86;78.81;102259.94;5061822;28;20036;-53
2023/01/26 06:06:59;;;;;;;58.85;20.92;;;;;;;11.64;79.01;102264.13;5058812;28;20032;-53
2023/01/26 06:09:29;;;;;;;66.22;23.35;;;;;;;11.04;82.12;102261.53;5058935;28;20025;-53
2023/01/26 06:11:58;;;;;;;70.05;21.35;;;;;;;11.11;81.36;102269.75;5060301;28;20108;-51
2023/01/26 06:14:31;;;;;;;79.88;23.02;;;;;;;11.14;82.30;102263.25;5057010;28;20032;-50
2023/01/26 06:16:57;;;;;;;;;;;;;;;11.22;81.99;102257.06;5060901;28;20037;-51
2023/01/26 06:19:23;;;;;;;60.30;20.33;;;;;;;10.92;83.57;102260.19;5060641;28;20003;-51
2023/01/26 06:21:55;;;;;;;63.60;20.48;;;;;;;10.97;83.31;102265.88;5058909;28;20056;-50
2023/01/26 06:24:22;;;;;;;;;;;;;;;11.16;82.59;102267.41;5058715;28;20068;-55
2023/01/26 06:26:48;;;;;;;55.72;18.08;;;;;;;11.09;82.94;102268.25;5055672;28;19940;-53
2023/01/26 06:29:16;;;;;;;70.78;24.17;;;;;;;10.99;83.11;102271.06;5058578;28;20026;-52
2023/01/26 06:31:41;;;;;;;64.00;20.65;;;;;;;10.79;85.16;102275.84;5062798;28;20029;-51
2023/01/26 06:34:08;;;;;;;70.85;20.88;;;;;;;10.69;85.78;102275.97;5062429;28;20063;-52
2023/01/26 06:36:37;;;;;;;71.13;21.98;;;;;;;10.89;84.60;102273.88;5054624;28;20029;-50
2023/01/26 06:39:06;;;;;;;67.85;21.30;;;;;;;11.10;83.69;102280.66;5061487;28;20051;-51
2023/01/26 06:41:32;;;;;;;64.00;21.38;;;;;;;11.07;83.79;102284.47;5062031;28;20025;-51
2023/01/26 06:43:57;;;;;;;67.90;22.35;;;;;;;11.03;84.70;102286.63;5062220;28;20029;-53
2023/01/26 06:46:23;;;;;;;69.73;21.87;;;;;;;10.91;85.55;102277.25;5062778;28;20049;-49
2023/01/26 06:48:51;;;;;;;66.18;21.42;;;;;;;10.84;86.03;102286.91;5059552;28;20026;-53
2023/01/26 06:51:18;;;;;;;61.58;20.50;;;;;;;11.22;84.19;102283.84;5061196;28;20496;-54
2023/01/26 06:53:53;;;;;;;73.32;21.77;;;;;;;11.60;82.75;102290.44;5061706;28;20041;-50
2023/01/26 06:56:28;;;;;;;65.40;21.73;;;;;;;11.21;83.91;102293.72;5056506;28;20116;-53
2023/01/26 06:58:57;;;;;;;69.90;21.08;;;;;;;11.01;85.27;102285.97;5059952;28;20037;-51
2023/01/26 07:01:48;;;;;;;64.47;21.80;;;;;;;11.05;85.46;102291.84;5058198;28;20056;-54
2023/01/26 07:04:15;;;;;;;66.03;19.98;;;;;;;10.93;86.28;102280.59;5061368;28;20025;-53
2023/01/26 07:06:42;;;;;;;57.13;18.75;;;;;;;11.01;86.16;102291.31;5063261;28;20120;-54
2023/01/26 07:09:07;;;;;;;;;;;;;;;11.59;83.69;102295.94;5062328;28;20043;-53
2023/01/26 07:11:33;;;;;;;65.97;22.27;;;;;;;11.45;84.55;102286.72;5059189;28;19912;-54
2023/01/26 07:13:59;;;;;;;62.25;19.23;;;;;;;11.66;83.29;102291.63;5054576;28;20056;-53
2023/01/26 07:16:25;;;;;;;69.67;21.10;;;;;;;11.12;85.02;102284.81;5063815;28;20045;-52
2023/01/26 07:18:53;;;;;;;66.55;21.25;;;;;;;11.46;84.33;102285.72;5057844;28;20037;-51
2023/01/26 07:21:20;;;;;;;74.05;21.55;;;;;;;11.44;83.29;102290.41;5057166;28;20060;-51
2023/01/26 07:23:46;;;;;;;59.50;19.77;;;;;;;10.87;85.82;102292.78;5055106;28;20042;-54
2023/01/26 07:26:12;;;;;;;63.87;19.37;;;;;;;10.81;87.88;102292.56;5057235;28;20028;-54
2023/01/26 07:28:38;;;;;;;59.50;21.33;;;;;;;11.07;86.76;102297.00;5058985;28;20029;-51
2023/01/26 07:31:05;;;;;;;68.63;20.77;;;;;;;11.51;85.01;102291.41;5058799;28;20064;-52
2023/01/26 07:33:31;;;;;;;64.53;21.17;;;;;;;11.13;86.41;102293.69;5061236;28;20040;-54
2023/01/26 07:35:59;;;;;;;70.32;21.40;;;;;;;11.04;86.76;102298.19;5057097;28;20397;-53
2023/01/26 07:38:27;;;;;;;57.55;20.38;;;;;;;11.56;84.77;102302.50;5058108;28;20095;-53
2023/01/26 07:40:52;;;;;;;57.95;20.17;;;;;;;11.27;85.90;102309.13;5056466;28;20037;-53
2023/01/26 07:43:18;;;;;;;58.97;20.40;;;;;;;10.99;87.16;102303.19;5057711;28;20026;-54
2023/01/26 07:45:50;;;;;;;63.50;21.45;;;;;;;11.18;86.92;102316.28;5058784;28;20265;-55
2023/01/26 07:48:17;;;;;;;58.42;18.27;;;;;;;11.17;87.17;102313.78;5055308;28;20033;-53
2023/01/26 07:50:44;;;;;;;57.20;19.20;;;;;;;11.57;85.81;102324.75;5059584;28;20060;-54
2023/01/26 07:53:11;;;;;;;68.22;20.35;;;;;;;11.70;84.16;102324.25;5053367;28;20033;-50
2023/01/26 07:55:37;;;;;;;56.90;19.27;;;;;;;11.67;85.29;102321.91;5057837;28;20037;-56
2023/01/26 07:58:03;;;;;;;61.13;18.70;;;;;;;11.27;87.10;102319.81;5060010;28;20040;-54
2023/01/26 08:00:28;;;;;;;64.67;20.57;;;;;;;11.36;87.06;102325.22;5055253;28;20048;-54
2023/01/26 08:02:54;;;;;;;65.57;20.92;;;;;;;11.63;84.69;102329.44;5055882;28;20063;-54
2023/01/26 08:05:19;;;;;;;65.13;20.93;;;;;;;11.80;84.49;102327.63;5058239;28;20048;-53
2023/01/26 08:07:45;;;;;;;50.47;14.80;;;;;;;11.55;85.41;102332.97;5058606;28;20049;-54
2023/01/26 08:10:12;;;;;;;72.87;21.30;;;;;;;11.49;86.31;102325.56;5057343;28;20041;-53
2023/01/26 08:12:38;;;;;;;64.80;19.83;;;;;;;11.38;86.58;102325.91;5054175;28;20045;-54
2023/01/26 08:15:03;;;;;;;76.53;23.63;;;;;;;11.37;88.01;102324.22;5058913;28;20021;-50
2023/01/26 08:17:32;;;;;;;69.45;21.73;;;;;;;11.71;85.96;102326.78;5061949;28;20060;-51
2023/01/26 08:19:58;;;;;;;73.57;21.55;;;;;;;11.37;87.70;102325.03;5059608;28;20025;-50
2023/01/26 08:22:24;;;;;;;68.20;20.17;;;;;;;11.96;85.21;102326.78;5057064;28;20037;-51
2023/01/26 08:24:50;;;;;;;70.47;20.75;;;;;;;11.38;87.56;102321.34;5056379;28;20025;-54
2023/01/26 08:27:16;;;;;;;86.53;23.23;;;;;;;11.38;87.89;102320.53;5055860;28;20041;-55
2023/01/26 08:29:41;;;;;;;75.68;22.95;;;;;;;11.42;88.58;102333.44;5055423;28;20029;-54
2023/01/26 08:32:08;;;;;;;85.60;23.58;;;;;;;11.86;86.58;102328.78;5056315;28;20041;-52
2023/01/26 08:34:34;;;;;;;76.47;22.45;;;;;;;11.67;86.12;102330.81;5055964;28;20056;-54
2023/01/26 08:37:00;;;;;;;75.18;22.77;;;;;;;12.08;85.44;102339.88;5055125;28;20060;-55
2023/01/26 08:39:26;;;;;;;;;;;;;;;12.29;83.89;102328.63;5057182;28;20048;-52
2023/01/26 08:41:52;;;;;;;69.60;20.97;;;;;;;12.33;83.47;102330.78;5052169;28;19921;-52
2023/01/26 08:44:17;;;;;;;81.73;20.17;;;;;;;12.38;83.13;102332.97;5055352;28;20025;-51
2023/01/26 08:46:43;;;;;;;75.47;21.90;;;;;;;12.71;82.31;102334.72;5056979;28;20350;-54
2023/01/26 08:49:08;;;;;;;82.70;23.57;;;;;;;12.66;81.76;102334.41;5062939;28;20048;-50
2023/01/26 08:51:33;;;;;;;79.70;20.87;;;;;;;12.76;81.44;102335.88;5058988;28;20275;-52
2023/01/26 08:53:59;;;;;;;81.68;22.98;;;;;;;12.58;82.15;102335.25;5062131;28;20065;-51
2023/01/26 08:56:25;;;;;;;79.00;25.03;;;;;;;12.53;83.25;102332.28;5060509;28;20037;-52
2023/01/26 08:58:50;;;;;;;58.07;16.57;;;;;;;12.75;82.40;102339.59;5058626;28;20355;-54
2023/01/26 09:01:16;;;;;;;62.17;22.13;;;;;;;12.23;83.68;102346.22;5061012;28;20044;-51
2023/01/26 09:03:43;;;;;;;73.03;21.20;;;;;;;12.02;87.76;102344.09;5059493;28;20052;-51
2023/01/26 09:06:12;;;;;;;73.13;23.05;;;;;;;11.86;88.41;102345.72;5060177;28;20052;-54
2023/01/26 09:08:38;;;;;;;81.88;23.52;;;;;;;12.49;85.59;102347.88;5065377;28;20033;-55
2023/01/26 09:11:07;;;;;;;45.83;15.10;;;;;;;12.48;85.45;102352.41;5059933;28;20106;-52
2023/01/26 09:13:35;;;;;;;68.75;20.50;;;;;;;12.64;84.87;102357.91;5061667;28;20044;-52
2023/01/26 09:16:06;;;;;;;68.80;22.17;;;;;;;12.53;85.53;102356.41;5063212;28;20044;-53
2023/01/26 09:18:32;;;;;;;77.43;22.60;;;;;;;11.95;89.48;102353.75;5062629;28;20035;-56
2023/01/26 09:21:05;;;;;;;69.45;21.52;;;;;;;11.98;90.00;102358.78;5065141;28;20033;-52
2023/01/26 09:23:33;;;;;;;72.47;19.83;;;;;;;12.61;88.01;102357.25;5056877;28;20041;-53
2023/01/26 09:25:58;;;;;;;64.88;21.33;;;;;;;12.30;89.42;102362.50;5060091;28;20033;-52
2023/01/26 09:28:24;;;;;;;71.55;21.98;;;;;;;12.23;90.39;102356.13;5059733;28;20037;-52
2023/01/26 09:30:50;;;;;;;73.27;21.97;;;;;;;12.00;91.68;102362.16;5057475;28;20060;-50
2023/01/26 09:33:16;;;;;;;73.07;20.50;;;;;;;12.39;90.96;102361.47;5058035;28;20112;-52
2023/01/26 09:35:41;;;;;;;67.53;19.77;;;;;;;12.87;87.58;102368.72;5057914;28;20294;-50
2023/01/26 09:38:06;;;;;;;66.90;19.50;;;;;;;12.94;87.82;102367.03;5063773;28;20266;-52
2023/01/26 09:40:59;;;;;;;49.80;15.60;;;;;;;12.89;88.26;102369.38;5064189;28;20299;-47
2023/01/26 09:43:49;;;;;;;76.40;20.33;;;;;;;12.76;89.56;102360.03;5065612;28;20039;-54
2023/01/26 09:46:20;;;;;;;74.10;19.98;;;;;;;12.86;90.00;102367.06;5056805;28;20111;-53
2023/01/26 09:48:59;;;;;;;65.07;18.75;;;;;;;13.03;90.41;102355.25;5055216;28;20125;-53
2023/01/26 09:51:34;;;;;;;67.05;21.98;;;;;;;12.96;90.65;102359.66;5057354;28;20037;-54
2023/01/26 09:54:29;;;;;;;73.68;20.70;;;;;;;13.34;89.77;102357.09;5058414;28;20038;-54
2023/01/26 09:56:55;;;;;;;62.33;19.20;;;;;;;13.81;87.98;102362.53;5059881;28;20101;-51
2023/01/26 09:59:43;;;;;;;71.00;19.23;;;;;;;13.75;87.94;102363.25;5058444;28;20037;-50
2023/01/26 10:02:11;;;;;;;;;;;;;;;13.82;86.41;102358.00;5061698;28;20129;-54
2023/01/26 10:04:41;;;;;;;54.60;17.20;;;;;;;13.56;87.07;102362.72;5059305;28;19972;-51
2023/01/26 10:07:12;;;;;;;70.93;19.58;;;;;;;13.67;87.96;102366.00;5059320;28;20056;-49
2023/01/26 10:09:47;;;;;;;56.97;18.05;;;;;;;14.30;86.49;102369.34;5058565;28;20176;-51
2023/01/26 10:12:20;;;;;;;57.30;17.67;;;;;;;14.52;85.99;102382.09;5061296;28;20037;-54
2023/01/26 10:14:55;;;;;;;65.32;18.70;;;;;;;14.47;86.59;102367.34;5063320;28;20121;-49
2023/01/26 10:17:26;;;;;;;51.65;16.90;;;;;;;14.18;87.71;102381.56;5058427;28;20061;-49
2023/01/26 10:19:59;;;;;;;36.80;12.93;;;;;;;14.08;87.71;102371.09;5053345;28;20101;-52
2023/01/26 10:22:43;;;;;;;47.30;16.90;;;;;;;14.51;86.65;102372.34;5061338;28;20092;-49
2023/01/26 10:25:28;;;;;;;52.30;15.40;;;;;;;14.44;86.96;102372.28;5058884;28;20037;-49
2023/01/26 10:27:53;;;;;;;38.78;10.85;;;;;;;14.32;85.42;102375.38;5060680;28;20037;-52
2023/01/26 10:30:20;;;;;;;52.60;15.35;;;;;;;14.88;86.20;102366.09;5061889;28;20047;-51
2023/01/26 10:32:50;;;;;;;57.30;15.18;;;;;;;14.98;87.76;102373.03;5064584;28;20036;-51
2023/01/26 10:35:18;;;;;;;59.45;14.95;;;;;;;15.38;89.54;102369.97;5060626;28;20041;-54
2023/01/26 10:37:45;;;;;;;52.05;13.15;;;;;;;16.87;84.77;102372.91;5063710;28;20037;-55
2023/01/26 10:40:11;;;;;;;47.40;14.00;;;;;;;18.38;79.71;102366.56;5061692;28;20068;-54
2023/01/26 10:42:38;;;;;;;27.20;10.32;;;;;;;19.41;72.78;102372.28;5063173;28;20037;-51
2023/01/26 10:45:30;;;;;;;29.33;11.50;;;;;;;21.04;67.82;102376.91;5060518;28;20026;-51
2023/01/26 10:48:23;;;;;;;50.47;13.67;;;;;;;21.88;66.01;102377.19;5062728;28;20294;-52
2023/01/26 10:50:50;;;;;;;45.30;13.57;;;;;;;22.96;62.48;102377.97;5056962;28;20276;-52
2023/01/26 10:53:28;;;;;;;44.80;13.88;;;;;;;23.70;60.07;102387.25;5059871;28;20056;-55
2023/01/26 10:56:10;;;;;;;36.10;12.37;;;;;;;24.27;56.59;102388.19;5057308;28;20044;-52
2023/01/26 10:58:40;;;;;;;33.73;10.47;;;;;;;24.15;55.84;102393.78;5061759;28;20036;-51
2023/01/26 11:01:11;;;;;;;34.57;10.67;;;;;;;24.63;54.78;102391.41;5054350;28;20054;-55
2023/01/26 11:03:38;;;;;;;31.07;10.47;;;;;;;24.81;55.06;102394.97;5061433;28;20052;-56
2023/01/26 11:06:13;;;;;;;30.77;9.83;;;;;;;25.35;52.55;102399.69;5056041;28;20040;-53
2023/01/26 11:08:40;;;;;;;31.73;10.50;;;;;;;25.14;53.42;102399.47;5057253;28;20052;-56
2023/01/26 11:11:20;;;;;;;26.48;8.82;;;;;;;25.01;52.65;102397.94;5058528;28;20041;-52
2023/01/26 11:13:46;;;;;;;26.40;9.40;;;;;;;23.66;55.79;102397.88;5058812;28;20071;-54
2023/01/26 11:16:21;;;;;;;37.40;9.70;;;;;;;22.59;57.64;102400.91;5058834;28;20472;-55
2023/01/26 11:19:12;;;;;;;29.50;7.80;;;;;;;22.20;60.58;102394.03;5061580;28;20039;-55
2023/01/26 11:21:52;;;;;;;34.70;8.97;;;;;;;22.03;62.34;102395.81;5051316;28;20961;-54
2023/01/26 11:24:30;;;;;;;33.47;7.53;;;;;;;22.25;60.77;102393.31;5057236;28;20040;-53
2023/01/26 11:27:17;;;;;;;32.37;7.80;;;;;;;22.30;61.39;102389.88;5060635;28;20043;-50
2023/01/26 11:29:49;;;;;;;38.78;8.23;;;;;;;22.70;62.02;102396.50;5058463;28;20037;-58
2023/01/26 11:33:01;;;;;;;32.77;7.70;;;;;;;22.66;60.29;102392.59;5057243;28;20063;-54
2023/01/26 11:35:30;;;;;;;37.07;7.33;;;;;;;23.49;59.94;102389.63;5018476;28;20105;-50
2023/01/26 11:38:05;;;;;;;32.77;8.33;;;;;;;24.36;59.86;102378.47;5046002;28;20049;-54
2023/01/26 11:40:33;;;;;;;28.80;7.40;;;;;;;24.33;58.52;102381.72;5059545;28;20033;-52
2023/01/26 11:43:11;;;;;;;36.77;8.53;;;;;;;24.36;57.28;102378.47;5063491;28;20029;-51
2023/01/26 11:45:44;;;;;;;34.07;7.17;;;;;;;24.73;56.68;102380.63;5058831;28;20032;-53
2023/01/26 11:48:24;;;;;;;21.93;6.60;;;;;;;26.41;54.61;102398.34;5055933;28;20069;-54
2023/01/26 11:51:01;;;;;;;23.47;6.23;;;;;;;25.84;55.79;102384.25;5057530;28;20030;-51
2023/01/26 11:53:59;;;;;;;21.97;4.83;;;;;;;25.58;55.05;102378.56;5059515;28;20562;-54
2023/01/26 11:56:27;;;;;;;27.20;4.97;;;;;;;26.27;55.20;102381.56;5060715;28;20275;-52
2023/01/26 11:59:24;;;;;;;19.60;4.33;;;;;;;26.45;53.33;102374.81;5052490;28;20045;-54
2023/01/26 12:02:24;;;;;;;20.58;3.92;;;;;;;24.86;53.40;102364.91;5060021;28;20039;-54
2023/01/26 12:04:51;;;;;;;18.70;3.67;;;;;;;23.87;60.30;102371.72;5055022;28;20137;-53
2023/01/26 12:07:53;;;;;;;15.50;4.57;;;;;;;23.58;59.27;102369.06;5058262;28;20053;-52
2023/01/26 12:10:26;;;;;;;17.27;3.33;;;;;;;22.74;61.06;102354.91;5059519;28;20037;-53
2023/01/26 12:12:57;;;;;;;26.07;4.10;;;;;;;23.16;60.92;102367.44;5057868;28;20037;-52
2023/01/26 12:15:39;;;;;;;27.97;4.83;;;;;;;24.48;59.21;102365.53;5051647;28;20030;-53
2023/01/26 12:18:07;;;;;;;21.07;2.73;;;;;;;25.55;56.65;102358.00;5059798;28;20049;-52